Time;durP1;ratioP1;P1;durP2;ratioP2;P2;SDS_P1;SDS_P2;PMS_P1;PMS_P2;Temp;Humidity;BMP_temperature;BMP_pressure;BME280_temperature;BME280_humidity;BME280_pressure;Samples;Min_cycle;Max_cycle;Signal;HPM_P1;HPM_P2
2022/06/01 00:01:14;;;;;;;16.98;13.95;;;12.50;99.90;;;;;;4976451;28;20042;-60
2022/06/01 00:03:42;;;;;;;18.58;14.93;;;12.60;99.90;;;;;;4976244;28;20047;-60
2022/06/01 00:06:09;;;;;;;19.90;14.45;;;12.20;99.90;;;;;;4976356;28;20043;-59
2022/06/01 00:08:36;;;;;;;19.00;15.43;;;12.40;99.90;;;;;;4976147;28;20073;-59
2022/06/01 00:11:02;;;;;;;21.63;15.13;;;12.30;99.90;;;;;;4976055;28;20561;-59
2022/06/01 00:13:28;;;;;;;17.55;15.05;;;12.30;99.90;;;;;;4976206;28;20054;-60
2022/06/01 00:15:54;;;;;;;19.42;15.40;;;12.40;99.90;;;;;;4976290;28;20411;-60
2022/06/01 00:18:22;;;;;;;20.65;16.42;;;12.20;99.90;;;;;;4976130;28;20054;-59
2022/06/01 00:20:48;;;;;;;19.67;15.90;;;12.30;99.90;;;;;;4976132;28;20043;-60
2022/06/01 00:23:14;;;;;;;19.42;15.90;;;12.20;99.90;;;;;;4974627;28;20145;-60
2022/06/01 00:25:41;;;;;;;20.17;15.27;;;12.30;99.90;;;;;;4976245;28;20078;-60
2022/06/01 00:28:07;;;;;;;17.80;16.00;;;12.30;99.90;;;;;;4976043;28;20074;-59
2022/06/01 00:30:33;;;;;;;21.77;16.08;;;12.00;99.90;;;;;;4975901;28;20043;-59
2022/06/01 00:32:59;;;;;;;19.00;15.70;;;12.10;99.90;;;;;;4975963;28;20053;-59
2022/06/01 00:35:25;;;;;;;22.13;16.58;;;12.10;99.90;;;;;;4976236;28;20046;-59
2022/06/01 00:37:52;;;;;;;21.60;15.65;;;;;;;;;;4975592;28;20055;-59
2022/06/01 00:40:21;;;;;;;21.30;15.82;;;12.80;99.90;;;;;;4975893;28;20050;-59
2022/06/01 00:42:50;;;;;;;20.58;16.77;;;12.20;99.90;;;;;;4975508;28;20059;-59
2022/06/01 00:45:20;;;;;;;20.30;17.02;;;12.20;99.90;;;;;;4958452;28;20082;-59
2022/06/01 00:47:46;;;;;;;18.27;16.25;;;12.30;99.90;;;;;;4958090;28;20078;-59
2022/06/01 00:50:18;;;;;;;20.35;17.48;;;11.60;99.90;;;;;;4958233;28;20081;-59
2022/06/01 00:52:52;;;;;;;22.10;17.70;;;12.00;99.90;;;;;;4975684;28;20398;-59
2022/06/01 00:55:28;;;;;;;21.65;18.10;;;12.20;99.90;;;;;;4975633;28;20135;-59
2022/06/01 00:58:01;;;;;;;21.85;17.83;;;12.00;99.90;;;;;;4975479;28;20130;-59
2022/06/01 01:00:32;;;;;;;21.30;18.30;;;12.10;99.90;;;;;;4980115;23;20051;-83
2022/06/01 01:03:16;;;;;;;;;;;;;;;;;;;;;
2022/06/01 01:06:01;;;;;;;20.42;18.13;;;12.00;99.90;;;;;;4954151;29;20066;-84
2022/06/01 01:08:30;;;;;;;22.42;19.55;;;;;;;;;;4938727;29;20147;-83
2022/06/01 01:10:56;;;;;;;21.27;18.55;;;;;;;;;;4953992;28;20043;-83
2022/06/01 01:13:25;;;;;;;22.63;19.08;;;;;;;;;;4938152;29;20486;-84
2022/06/01 01:15:55;;;;;;;23.23;19.02;;;12.00;99.90;;;;;;4954279;29;20055;-84
2022/06/01 01:18:28;;;;;;;22.23;19.13;;;12.00;99.90;;;;;;4955016;29;20055;-84
2022/06/01 01:21:19;;;;;;;21.67;19.35;;;12.00;99.90;;;;;;4960273;29;20069;-84
2022/06/01 01:24:04;;;;;;;24.25;20.70;;;11.90;99.90;;;;;;4954115;29;20082;-84
2022/06/01 01:26:32;;;;;;;23.00;20.08;;;11.90;99.90;;;;;;4953892;29;20049;-84
2022/06/01 01:28:58;;;;;;;21.08;18.75;;;;;;;;;;4938273;29;20062;-84
2022/06/01 01:31:25;;;;;;;27.15;20.42;;;11.90;99.90;;;;;;4953996;29;20529;-84
2022/06/01 01:33:58;;;;;;;22.67;19.65;;;12.30;99.90;;;;;;4953828;29;20051;-84
2022/06/01 01:36:34;;;;;;;25.58;20.25;;;11.90;99.90;;;;;;4954993;28;20142;-84
2022/06/01 01:39:30;;;;;;;23.77;19.95;;;14.30;99.90;;;;;;4953886;29;20142;-84
2022/06/01 01:41:56;;;;;;;;;;;14.40;99.90;;;;;;4954637;29;20134;-84
2022/06/01 01:44:49;;;;;;;24.02;20.92;;;11.80;99.90;;;;;;4953745;29;20046;-84
2022/06/01 01:47:21;;;;;;;25.88;21.13;;;11.80;99.90;;;;;;4937728;29;20055;-84
2022/06/01 01:49:50;;;;;;;25.48;21.67;;;11.80;99.90;;;;;;4955091;28;20122;-84
2022/06/01 01:52:18;;;;;;;23.45;20.95;;;11.80;99.90;;;;;;4953794;29;20410;-84
2022/06/01 01:54:45;;;;;;;24.38;21.70;;;;;;;;;;4954011;29;20051;-84
2022/06/01 01:57:56;;;;;;;24.60;21.75;;;11.80;99.90;;;;;;4953904;29;20047;-84
2022/06/01 02:00:27;;;;;;;24.77;22.17;;;11.80;99.90;;;;;;4919007;29;20043;-84
2022/06/01 02:03:21;;;;;;;24.95;21.90;;;11.70;99.90;;;;;;4938576;29;20047;-84
2022/06/01 02:06:32;;;;;;;25.05;22.10;;;11.80;99.90;;;;;;4939124;29;20470;-84
2022/06/01 02:09:15;;;;;;;23.15;20.75;;;11.80;99.90;;;;;;4931365;29;20055;-83
2022/06/01 02:15:06;;;;;;;27.45;22.20;;;11.80;99.90;;;;;;4937472;29;20507;-84
2022/06/01 02:17:57;;;;;;;26.60;22.87;;;11.80;99.90;;;;;;4913160;29;20055;-84
2022/06/01 02:20:42;;;;;;;26.40;23.35;;;11.80;99.90;;;;;;4921575;28;20418;-84
2022/06/01 02:23:11;;;;;;;26.67;23.25;;;11.70;99.90;;;;;;4925436;29;20051;-83
2022/06/01 02:25:39;;;;;;;25.10;22.45;;;11.70;99.90;;;;;;4925878;29;20054;-84
2022/06/01 02:28:09;;;;;;;26.85;23.15;;;11.80;99.90;;;;;;4941238;29;20079;-84
2022/06/01 02:30:39;;;;;;;29.02;22.70;;;11.70;99.90;;;;;;4943898;29;20055;-83
2022/06/01 02:33:13;;;;;;;27.80;23.15;;;11.70;99.90;;;;;;4948855;29;20147;-84
2022/06/01 02:35:52;;;;;;;25.80;22.85;;;11.60;99.90;;;;;;4930644;29;20055;-84
2022/06/01 02:39:04;;;;;;;25.92;23.17;;;12.20;99.90;;;;;;4944771;29;20054;-84
2022/06/01 02:44:16;;;;;;;27.85;23.20;;;11.60;99.90;;;;;;4943476;29;20090;-83
2022/06/01 02:46:42;;;;;;;25.92;22.73;;;;;;;;;;4926180;29;20386;-84
2022/06/01 02:49:09;;;;;;;27.90;22.98;;;;;;;;;;4924647;29;20044;-84
2022/06/01 02:51:35;;;;;;;28.00;21.77;;;;;;;;;;4924671;29;20501;-84
2022/06/01 02:54:01;;;;;;;24.67;22.08;;;;;;;;;;4924988;29;20051;-84
2022/06/01 02:56:28;;;;;;;27.23;22.30;;;;;;;;;;4924676;29;20051;-84
2022/06/01 02:58:57;;;;;;;26.98;21.38;;;11.40;99.90;;;;;;4940770;29;20091;-84
2022/06/01 03:01:29;;;;;;;23.15;20.70;;;;;;;;;;4923914;29;20102;-83
2022/06/01 03:03:55;;;;;;;24.67;21.05;;;;;;;;;;4940342;29;20059;-84
2022/06/01 03:06:21;;;;;;;23.50;20.95;;;;;;;;;;4940358;29;20044;-83
2022/06/01 03:08:47;;;;;;;22.48;20.05;;;;;;;;;;4940535;29;20054;-83
2022/06/01 03:11:14;;;;;;;26.98;20.02;;;11.70;99.90;;;;;;4940271;29;20442;-83
2022/06/01 03:13:42;;;;;;;22.33;19.95;;;11.60;99.90;;;;;;4940379;29;20062;-83
2022/06/01 03:16:08;;;;;;;22.05;19.67;;;;;;;;;;4924157;29;20048;-83
2022/06/01 03:18:39;;;;;;;22.55;20.08;;;;;;;;;;4924567;29;20155;-84
2022/06/01 03:21:05;;;;;;;22.63;20.20;;;;;;;;;;4957312;29;20102;-84
2022/06/01 03:23:32;;;;;;;23.35;19.35;;;;;;;;;;4924577;29;20066;-84
2022/06/01 03:25:58;;;;;;;23.25;19.67;;;;;;;;;;4924664;29;20078;-84
2022/06/01 03:28:24;;;;;;;22.42;19.85;;;;;;;;;;4924340;29;20047;-84
2022/06/01 03:30:50;;;;;;;23.40;19.65;;;;;;;;;;4924465;29;20067;-84
2022/06/01 03:33:17;;;;;;;22.60;20.10;;;;;;;;;;4924713;29;20070;-84
2022/06/01 03:35:43;;;;;;;23.02;20.52;;;;;;;;;;4924816;29;20051;-84
2022/06/01 03:38:09;;;;;;;21.23;19.02;;;;;;;;;;4957127;29;20135;-83
2022/06/01 03:40:38;;;;;;;22.33;19.67;;;11.50;99.90;;;;;;4956940;29;20439;-84
2022/06/01 03:43:05;;;;;;;21.92;19.60;;;;;;;;;;4924063;29;20423;-83
2022/06/01 03:48:15;;;;;;;22.55;20.17;;;;;;;;;;4956820;29;20055;-83
2022/06/01 03:50:42;;;;;;;22.80;20.40;;;;;;;;;;4956969;29;20051;-84
2022/06/01 03:53:08;;;;;;;24.58;22.00;;;;;;;;;;4939896;29;20066;-84
2022/06/01 03:55:36;;;;;;;27.70;21.73;;;;;;;;;;4924076;29;20462;-84
2022/06/01 03:58:21;;;;;;;23.90;21.33;;;11.50;99.90;;;;;;4956736;29;20055;-84
2022/06/01 04:00:50;;;;;;;24.60;22.02;;;11.50;99.90;;;;;;4938899;29;20047;-84
2022/06/01 04:03:16;;;;;;;26.35;23.65;;;;;;;;;;4956485;29;20110;-83
2022/06/01 04:05:45;;;;;;;28.23;25.00;;;11.50;99.90;;;;;;4923700;29;20047;-83
2022/06/01 04:08:11;;;;;;;27.58;24.50;;;;;;;;;;4956584;29;20047;-83
2022/06/01 04:10:39;;;;;;;27.23;24.27;;;11.40;99.90;;;;;;4939171;29;20067;-83
2022/06/01 04:13:38;;;;;;;29.67;24.88;;;11.50;99.90;;;;;;4956189;29;20399;-83
2022/06/01 04:16:04;;;;;;;28.77;25.52;;;11.50;99.90;;;;;;4923380;29;20117;-83
2022/06/01 04:18:30;;;;;;;32.83;27.27;;;;;;;;;;4939325;29;20052;-83
2022/06/01 04:20:56;;;;;;;30.75;27.08;;;;;;;;;;4956182;29;20047;-83
2022/06/01 04:23:22;;;;;;;31.65;27.52;;;;;;;;;;4939017;29;20048;-83
2022/06/01 04:25:51;;;;;;;31.20;27.95;;;;;;;;;;4938878;29;20055;-83
2022/06/01 04:28:17;;;;;;;34.17;27.70;;;;;;;;;;4956177;29;20418;-83
2022/06/01 04:30:43;;;;;;;30.58;27.27;;;;;;;;;;4938748;29;20103;-83
2022/06/01 04:33:10;;;;;;;30.92;27.23;;;;;;;;;;4938857;29;20086;-83
2022/06/01 04:35:36;;;;;;;32.13;28.63;;;;;;;;;;4938804;29;20163;-83
2022/06/01 04:38:14;;;;;;;31.38;28.00;;;;;;;;;;4938733;29;20062;-84
2022/06/01 04:40:46;;;;;;;31.63;27.92;;;11.60;99.90;;;;;;4938785;29;20066;-84
2022/06/01 04:43:25;;;;;;;34.05;28.33;;;11.50;99.90;;;;;;4938802;29;20058;-84
2022/06/01 04:45:54;;;;;;;31.00;27.33;;;;;;;;;;4938245;29;20105;-84
2022/06/01 04:48:22;;;;;;;31.17;27.77;;;;;;;;;;4922858;29;20055;-83
2022/06/01 04:50:49;;;;;;;30.05;26.75;;;11.60;99.90;;;;;;4938362;29;20058;-84
2022/06/01 04:53:16;;;;;;;32.80;27.95;;;11.60;99.90;;;;;;4955759;29;20062;-84
2022/06/01 04:55:46;;;;;;;30.10;26.83;;;11.60;99.90;;;;;;4922332;29;20059;-83
2022/06/01 04:58:26;;;;;;;31.13;27.52;;;;;;;;;;4938198;29;20055;-84
2022/06/01 05:00:52;;;;;;;32.33;28.50;;;;;;;;;;4922412;29;20059;-84
2022/06/01 05:03:18;;;;;;;31.23;26.35;;;;;;;;;;4938423;29;20409;-84
2022/06/01 05:05:44;;;;;;;29.40;25.88;;;;;;;;;;4922512;29;20051;-84
2022/06/01 05:08:12;;;;;;;30.55;27.27;;;11.80;99.90;;;;;;4922660;29;20055;-83
2022/06/01 05:10:42;;;;;;;31.13;26.95;;;11.70;99.90;;;;;;4938216;29;20051;-84
2022/06/01 05:13:16;;;;;;;32.90;28.33;;;11.80;99.90;;;;;;4938272;29;20051;-84
2022/06/01 05:15:57;;;;;;;34.70;28.27;;;11.80;99.90;;;;;;4938393;29;20063;-84
2022/06/01 05:18:26;;;;;;;32.63;28.88;;;11.80;99.90;;;;;;4938327;29;20159;-84
2022/06/01 05:21:15;;;;;;;30.00;26.70;;;11.90;99.90;;;;;;4938416;29;20047;-85
2022/06/01 05:24:12;;;;;;;33.15;27.38;;;11.90;99.90;;;;;;4923347;29;20051;-86
2022/06/01 05:26:41;;;;;;;31.02;25.45;;;;;;;;;;4938311;29;20054;-87
2022/06/01 05:29:18;;;;;;;29.85;26.20;;;12.10;99.90;;;;;;4956106;29;20047;-86
2022/06/01 05:31:45;;;;;;;31.02;26.55;;;12.10;99.90;;;;;;4938052;29;20063;-85
2022/06/01 05:34:11;;;;;;;29.27;26.15;;;;;;;;;;4938163;29;20122;-86
2022/06/01 05:36:48;;;;;;;30.42;27.00;;;12.30;99.90;;;;;;4937908;29;20446;-86
2022/06/01 05:39:14;;;;;;;30.00;26.55;;;;;;;;;;4939277;29;20051;-85
2022/06/01 05:41:40;;;;;;;30.15;25.65;;;;;;;;;;4956093;29;20550;-85
2022/06/01 05:44:10;;;;;;;28.48;25.52;;;13.00;99.90;;;;;;4937263;29;20082;-86
2022/06/01 05:46:54;;;;;;;27.75;24.50;;;13.60;99.90;;;;;;4921971;29;20152;-86
2022/06/01 05:49:57;;;;;;;26.25;23.33;;;13.80;99.90;;;;;;4881321;29;20053;-85
2022/06/01 05:52:52;;;;;;;28.00;25.02;;;13.90;99.90;;;;;;4895798;29;20521;-85
2022/06/01 05:55:22;;;;;;;29.95;25.10;;;;;;;;;;4841584;29;20061;-85
2022/06/01 05:57:54;;;;;;;25.40;22.80;;;;;;;;;;4878916;29;20121;-86
2022/06/01 06:00:26;;;;;;;24.92;22.17;;;14.90;99.90;;;;;;4879894;29;20802;-85
2022/06/01 06:06:23;;;;;;;21.05;18.75;;;16.90;99.90;;;;;;4879838;29;20064;-85
2022/06/01 06:09:03;;;;;;;20.75;16.38;;;18.60;99.90;;;;;;4867742;29;20063;-85
2022/06/01 06:11:35;;;;;;;20.23;16.45;;;19.60;99.90;;;;;;4906704;29;20058;-86
2022/06/01 06:14:04;;;;;;;;;;;19.50;99.90;;;;;;4884403;29;20063;-86
2022/06/01 06:16:43;;;;;;;16.05;14.18;;;21.00;99.90;;;;;;4897215;29;19926;-87
2022/06/01 06:19:20;;;;;;;16.30;14.23;;;21.20;99.90;;;;;;4900959;29;20574;-87
2022/06/01 06:21:51;;;;;;;15.50;13.85;;;21.10;99.90;;;;;;4886272;29;20051;-89
2022/06/01 06:24:22;;;;;;;15.30;13.77;;;21.60;99.90;;;;;;4886264;29;20582;-86
2022/06/01 06:26:49;;;;;;;20.42;14.80;;;;;;;;;;4931392;28;20130;-87
2022/06/01 06:29:19;;;;;;;16.98;15.18;;;20.90;98.80;;;;;;4944581;28;20062;-86
2022/06/01 06:31:45;;;;;;;17.40;15.60;;;;;;;;;;4983324;28;20055;-86
2022/06/01 06:34:11;;;;;;;16.52;14.77;;;;;;;;;;4945069;29;20051;-87
2022/06/01 06:36:37;;;;;;;15.13;13.52;;;;;;;;;;4941914;28;20078;-87
2022/06/01 06:39:04;;;;;;;15.43;13.25;;;;;;;;;;4976973;28;20050;-86
2022/06/01 06:41:30;;;;;;;14.75;12.75;;;;;;;;;;4923827;29;20043;-86
2022/06/01 06:43:56;;;;;;;14.52;12.95;;;;;;;;;;4933107;28;20051;-87
2022/06/01 06:46:23;;;;;;;16.50;13.23;;;17.00;99.90;;;;;;4940817;28;20512;-87
2022/06/01 06:48:57;;;;;;;14.40;12.90;;;17.00;99.90;;;;;;4940667;28;20055;-87
2022/06/01 06:51:28;;;;;;;16.42;13.45;;;;;;;;;;4941351;28;20059;-87
2022/06/01 06:54:15;;;;;;;15.05;13.40;;;16.30;99.90;;;;;;4936385;29;20062;-87
2022/06/01 06:56:44;;;;;;;15.25;13.63;;;;;;;;;;4922175;29;20059;-87
2022/06/01 06:59:16;;;;;;;15.63;13.95;;;;;;;;;;4938240;29;20055;-87
2022/06/01 07:01:42;;;;;;;16.05;14.35;;;;;;;;;;4958823;28;20061;-87
2022/06/01 07:04:16;;;;;;;14.43;12.95;;;15.60;99.90;;;;;;4956538;28;20431;-87
2022/06/01 07:06:51;;;;;;;12.93;11.63;;;;;;;;;;4950255;28;20090;-87
2022/06/01 07:09:17;;;;;;;13.52;12.13;;;;;;;;;;4944414;28;20046;-87
2022/06/01 07:11:49;;;;;;;14.50;12.63;;;15.40;99.90;;;;;;4945181;28;20053;-86
2022/06/01 07:14:18;;;;;;;17.98;11.55;;;15.40;99.90;;;;;;4944205;28;20182;-86
2022/06/01 07:16:49;;;;;;;13.45;11.75;;;15.00;99.90;;;;;;4943617;28;20100;-86
2022/06/01 07:19:15;;;;;;;15.68;12.90;;;;;;;;;;4959655;28;20063;-87
2022/06/01 07:21:44;;;;;;;17.83;12.90;;;;;;;;;;4941086;28;20151;-87
2022/06/01 07:24:10;;;;;;;14.40;12.90;;;;;;;;;;4943104;28;20078;-87
2022/06/01 07:26:46;;;;;;;14.63;13.10;;;15.20;99.90;;;;;;4959434;28;20133;-87
2022/06/01 07:29:36;;;;;;;13.77;12.38;;;15.20;99.90;;;;;;4958637;28;20126;-87
2022/06/01 07:32:02;;;;;;;13.25;11.85;;;;;;;;;;4959371;28;20055;-87
2022/06/01 07:34:28;;;;;;;12.18;10.93;;;15.60;99.90;;;;;;4942184;28;20055;-87
2022/06/01 07:43:05;;;;;;;11.45;10.20;;;15.50;99.90;;;;;;4959387;28;20141;-87
2022/06/01 07:45:41;;;;;;;11.50;10.30;;;16.90;99.90;;;;;;4973004;28;20490;-87
2022/06/01 07:48:10;;;;;;;11.55;10.13;;;;;;;;;;4959176;28;20405;-87
2022/06/01 07:50:44;;;;;;;12.82;9.50;;;16.60;99.90;;;;;;4942951;28;20836;-87
2022/06/01 07:53:16;;;;;;;9.70;8.63;;;;;;;;;;4942915;28;20066;-87
2022/06/01 07:55:42;;;;;;;10.35;8.80;;;;;;;;;;4942679;28;20133;-87
2022/06/01 07:58:25;;;;;;;27.23;10.30;;;18.50;99.90;;;;;;4941022;28;20054;-87
2022/06/01 08:00:51;;;;;;;9.00;5.90;;;18.30;99.90;;;;;;4942580;28;20061;-87
2022/06/01 08:03:18;;;;;;;8.07;6.53;;;19.00;99.90;;;;;;4942731;28;20043;-87
2022/06/01 08:05:50;;;;;;;6.20;5.60;;;19.80;99.90;;;;;;4958699;28;20082;-87
2022/06/01 08:08:27;;;;;;;6.63;5.45;;;19.70;97.50;;;;;;4959323;28;20439;-87
2022/06/01 08:10:56;;;;;;;6.45;5.32;;;;;;;;;;4942712;28;20051;-87
2022/06/01 08:13:22;;;;;;;5.70;3.40;;;;;;;;;;4944167;28;20046;-86
2022/06/01 08:15:49;;;;;;;5.28;4.45;;;20.10;92.40;;;;;;4959002;28;20043;-87
2022/06/01 08:18:18;;;;;;;8.45;6.22;;;20.20;93.40;;;;;;4942432;28;20059;-86
2022/06/01 08:20:47;;;;;;;6.28;5.68;;;20.00;94.10;;;;;;4941630;28;20114;-87
2022/06/01 08:23:15;;;;;;;8.38;5.80;;;19.80;93.70;;;;;;4941354;28;20051;-87
2022/06/01 08:25:49;;;;;;;8.55;5.63;;;20.40;98.20;;;;;;4941757;28;20127;-87
2022/06/01 08:28:25;;;;;;;8.90;5.38;;;20.20;93.40;;;;;;4942802;28;20490;-87
2022/06/01 08:30:54;;;;;;;6.30;5.00;;;20.50;90.70;;;;;;4942163;28;20125;-87
2022/06/01 08:33:20;;;;;;;9.48;5.13;;;;;;;;;;4957687;28;20073;-87
2022/06/01 08:35:52;;;;;;;6.65;5.95;;;20.70;89.20;;;;;;4941680;28;20042;-87
2022/06/01 08:38:24;;;;;;;7.25;5.78;;;21.20;90.60;;;;;;4959098;28;20054;-87
2022/06/01 08:41:09;;;;;;;6.45;5.78;;;20.30;89.80;;;;;;4975458;28;20051;-87
2022/06/01 08:43:58;;;;;;;5.72;4.30;;;20.30;90.20;;;;;;4941949;28;20161;-88
2022/06/01 08:46:32;;;;;;;6.70;4.10;;;19.40;92.60;;;;;;4957658;28;20135;-88
2022/06/01 08:49:12;;;;;;;5.30;4.30;;;19.00;92.50;;;;;;4958749;28;20409;-87
2022/06/01 08:51:38;;;;;;;5.13;4.60;;;;;;;;;;4958136;28;20042;-88
2022/06/01 08:54:07;;;;;;;9.07;4.90;;;18.10;98.50;;;;;;4941878;28;20117;-87
2022/06/01 08:56:51;;;;;;;5.28;4.40;;;20.30;99.90;;;;;;4975244;28;20113;-87
2022/06/01 08:59:55;;;;;;;7.13;3.80;;;17.50;99.90;;;;;;4957973;28;20063;-88
2022/06/01 09:02:43;;;;;;;;;;;19.90;99.90;;;;;;4913530;29;20051;-85
2022/06/01 09:05:36;;;;;;;14.25;4.40;;;16.20;99.90;;;;;;4955124;28;19957;-83
2022/06/01 09:08:02;;;;;;;6.88;4.10;;;;;;;;;;4953937;29;20573;-84
2022/06/01 09:10:53;;;;;;;5.45;3.35;;;14.50;99.90;;;;;;4953515;29;20099;-84
2022/06/01 09:13:25;;;;;;;6.72;3.40;;;14.30;99.90;;;;;;4953620;28;20514;-84
2022/06/01 09:15:51;;;;;;;3.60;2.58;;;;;;;;;;4938012;29;20425;-84
2022/06/01 09:18:23;;;;;;;4.38;2.05;;;14.00;99.90;;;;;;4953143;29;20514;-84
2022/06/01 09:23:34;;;;;;;2.60;1.60;;;;;;;;;;4954556;28;20126;-84
2022/06/01 09:26:00;;;;;;;3.50;1.40;;;;;;;;;;4937393;29;20462;-84
2022/06/01 09:28:28;;;;;;;3.08;1.50;;;13.80;99.90;;;;;;4954478;29;20055;-83
2022/06/01 09:30:57;;;;;;;3.13;1.80;;;;;;;;;;4937427;29;20070;-84
2022/06/01 09:33:31;;;;;;;2.92;1.75;;;13.70;99.90;;;;;;4929143;29;20981;-84
2022/06/01 09:36:02;;;;;;;3.22;1.67;;;13.80;99.90;;;;;;4936692;29;20051;-84
2022/06/01 09:38:46;;;;;;;3.83;2.00;;;13.90;99.90;;;;;;4944373;29;20102;-84
2022/06/01 09:41:27;;;;;;;3.08;1.80;;;13.90;99.90;;;;;;4954819;29;20126;-84
2022/06/01 09:44:06;;;;;;;2.55;1.70;;;14.50;99.90;;;;;;4954502;28;20055;-83
2022/06/01 09:47:00;;;;;;;2.13;1.50;;;14.70;99.90;;;;;;4953305;29;20059;-84
2022/06/01 09:49:27;;;;;;;2.95;1.90;;;;;;;;;;4954811;28;20062;-85
2022/06/01 09:52:18;;;;;;;2.72;1.90;;;14.90;99.90;;;;;;4954821;28;20395;-84
2022/06/01 09:54:51;;;;;;;2.28;1.90;;;15.40;99.90;;;;;;4953937;29;20102;-85
2022/06/01 09:57:32;;;;;;;3.50;1.83;;;15.80;99.90;;;;;;4953440;29;20047;-84
2022/06/01 10:08:42;;;;;;;2.45;1.48;;;16.20;99.90;;;;;;4973858;28;20046;-85
2022/06/01 10:11:30;;;;;;;2.38;1.70;;;16.50;99.90;;;;;;4956640;28;20094;-85
2022/06/01 10:14:25;;;;;;;3.25;1.67;;;16.70;99.90;;;;;;4956740;28;20046;-85
2022/06/01 10:17:26;;;;;;;2.15;1.60;;;16.60;99.90;;;;;;4943232;28;20130;-85
2022/06/01 10:20:08;;;;;;;2.35;1.60;;;16.60;99.90;;;;;;4956788;28;20055;-85
2022/06/01 10:22:42;;;;;;;3.53;1.88;;;16.40;99.90;;;;;;4940461;28;20133;-86
2022/06/01 10:25:16;;;;;;;2.42;1.80;;;16.30;99.90;;;;;;4951939;28;20090;-85
2022/06/01 10:27:59;;;;;;;2.47;1.70;;;16.20;99.90;;;;;;4953792;29;20043;-84
2022/06/01 10:30:39;;;;;;;2.90;2.10;;;16.70;99.90;;;;;;4953253;29;20521;-85
2022/06/01 10:33:24;;;;;;;2.42;1.95;;;16.20;99.90;;;;;;4936076;29;20106;-85
2022/06/01 10:36:22;;;;;;;3.45;2.47;;;16.40;99.90;;;;;;4953017;29;20048;-85
2022/06/01 10:39:25;;;;;;;2.93;2.60;;;15.50;99.90;;;;;;4938030;28;20055;-85
2022/06/01 10:42:16;;;;;;;3.83;2.90;;;16.30;99.90;;;;;;4939211;28;20073;-86
2022/06/01 10:45:14;;;;;;;3.20;2.72;;;16.60;99.90;;;;;;4957970;28;20051;-85
2022/06/01 10:48:00;;;;;;;3.05;2.60;;;16.50;99.90;;;;;;4942652;28;20097;-86
2022/06/01 10:50:32;;;;;;;3.95;2.72;;;16.50;99.90;;;;;;4939846;29;20061;-85
2022/06/01 10:53:32;;;;;;;6.50;2.75;;;16.50;99.90;;;;;;4939731;29;20081;-86
2022/06/01 10:59:13;;;;;;;3.50;2.40;;;16.80;99.90;;;;;;4935936;29;20059;-86
2022/06/01 11:02:20;;;;;;;3.05;2.40;;;16.90;99.90;;;;;;4921418;29;20091;-86
2022/06/01 11:04:49;;;;;;;4.88;2.40;;;;;;;;;;4921325;29;20058;-86
2022/06/01 11:07:40;;;;;;;3.67;2.40;;;17.20;99.90;;;;;;4921816;29;20085;-85
2022/06/01 11:10:32;;;;;;;3.00;2.20;;;17.10;99.90;;;;;;4922048;29;20143;-86
2022/06/01 11:13:04;;;;;;;4.25;2.05;;;17.50;99.90;;;;;;4921845;29;20055;-86
2022/06/01 11:15:56;;;;;;;2.90;2.40;;;17.50;99.90;;;;;;4903832;29;20051;-84
2022/06/01 11:18:51;;;;;;;5.40;2.40;;;17.70;99.90;;;;;;4913506;29;20044;-85
2022/06/01 11:21:48;;;;;;;2.63;2.30;;;17.40;99.90;;;;;;4935354;29;20071;-85
2022/06/01 11:24:19;;;;;;;;;;;18.50;99.90;;;;;;4930825;29;20063;-85
2022/06/01 11:27:00;;;;;;;4.45;2.80;;;20.40;99.90;;;;;;4898849;29;19934;-85
2022/06/01 11:30:05;;;;;;;17.17;3.95;;;17.50;99.90;;;;;;4907506;29;20047;-86
2022/06/01 11:32:57;;;;;;;10.40;3.88;;;16.00;99.90;;;;;;4841239;29;20073;-83
2022/06/01 11:35:34;;;;;;;6.75;3.53;;;15.30;99.90;;;;;;4852397;29;20045;-82
2022/06/01 11:38:00;;;;;;;7.50;3.10;;;;;;;;;;4834992;29;20118;-83
2022/06/01 11:40:47;;;;;;;4.97;3.25;;;14.60;99.90;;;;;;4827611;29;20505;-81
2022/06/01 11:43:36;;;;;;;4.65;2.63;;;14.60;99.90;;;;;;4847779;29;20065;-82
2022/06/01 11:46:15;;;;;;;3.65;2.40;;;14.10;99.90;;;;;;4817920;29;20141;-82
2022/06/01 11:48:48;;;;;;;3.33;2.08;;;13.90;99.90;;;;;;4836477;29;20062;-84
2022/06/01 11:51:15;;;;;;;3.75;2.22;;;;;;;;;;4811637;29;20069;-83
2022/06/01 11:54:05;;;;;;;4.07;2.60;;;13.90;99.90;;;;;;4819014;29;20065;-83
2022/06/01 11:56:31;;;;;;;4.32;2.50;;;;;;;;;;4824763;29;20057;-83
2022/06/01 11:59:34;;;;;;;3.53;2.70;;;14.10;99.90;;;;;;4818494;29;20491;-84
2022/06/01 12:02:45;;;;;;;4.70;3.05;;;14.50;99.90;;;;;;4832958;29;20060;-83
2022/06/01 12:05:33;;;;;;;4.70;3.22;;;14.50;99.90;;;;;;4874702;29;20048;-84
2022/06/01 12:08:07;;;;;;;4.63;3.25;;;14.80;99.90;;;;;;4925549;29;20498;-85
2022/06/01 12:10:52;;;;;;;5.10;3.15;;;15.30;99.90;;;;;;4932822;29;20407;-84
2022/06/01 12:13:35;;;;;;;6.13;3.60;;;15.80;99.90;;;;;;4926201;29;20066;-84
2022/06/01 12:16:22;;;;;;;10.52;4.10;;;15.80;99.90;;;;;;4921386;29;20298;-85
2022/06/01 12:19:09;;;;;;;5.95;3.20;;;16.20;99.90;;;;;;4935942;29;20110;-86
2022/06/01 12:21:46;;;;;;;5.95;3.95;;;17.20;99.90;;;;;;4930205;29;20081;-85
2022/06/01 12:30:22;;;;;;;3.38;2.92;;;18.10;99.90;;;;;;4956322;29;20429;-87
2022/06/01 12:33:07;;;;;;;3.55;2.80;;;16.00;99.90;;;;;;4922701;29;20047;-87
2022/06/01 12:35:56;;;;;;;3.53;2.72;;;17.20;99.90;;;;;;4956283;29;20129;-87
2022/06/01 12:38:31;;;;;;;3.47;2.42;;;17.20;99.90;;;;;;4938545;29;20577;-87
2022/06/01 12:41:10;;;;;;;3.40;2.80;;;17.10;99.90;;;;;;4956116;29;20058;-87
2022/06/01 12:43:38;;;;;;;3.58;2.88;;;17.10;99.90;;;;;;4931726;29;20087;-86
2022/06/01 12:46:25;;;;;;;5.60;2.80;;;17.00;99.90;;;;;;4921839;29;20044;-87
2022/06/01 12:48:55;;;;;;;3.58;2.90;;;;;;;;;;4934974;29;20048;-87
2022/06/01 12:51:21;;;;;;;4.88;2.33;;;17.30;99.90;;;;;;4910471;29;20074;-87
2022/06/01 12:53:53;;;;;;;3.85;2.38;;;17.50;99.90;;;;;;4922346;29;20090;-87
2022/06/01 12:56:27;;;;;;;2.42;1.98;;;18.10;99.90;;;;;;4938285;29;20349;-87
2022/06/01 12:59:13;;;;;;;2.78;1.52;;;18.30;99.90;;;;;;4922365;29;20126;-87
2022/06/01 13:02:00;;;;;;;5.85;2.00;;;19.10;99.90;;;;;;4928987;28;20560;-86
2022/06/01 13:04:30;;;;;;;3.50;1.83;;;19.60;99.90;;;;;;4974685;28;20058;-87
2022/06/01 13:07:02;;;;;;;5.15;1.80;;;;;;;;;;4937780;29;20110;-87
2022/06/01 13:09:33;;;;;;;3.70;1.50;;;18.90;99.90;;;;;;4955496;28;20047;-86
2022/06/01 13:12:16;;;;;;;2.35;1.60;;;18.90;99.90;;;;;;4940940;28;20090;-87
2022/06/01 13:14:44;;;;;;;1.83;1.50;;;;;;;;;;4974485;28;20054;-87
2022/06/01 13:17:14;;;;;;;3.47;1.40;;;18.90;99.90;;;;;;4957080;28;20054;-87
2022/06/01 13:19:43;;;;;;;1.77;1.10;;;19.00;99.90;;;;;;4957020;28;20054;-87
2022/06/01 13:22:25;;;;;;;2.25;1.30;;;19.00;99.90;;;;;;4940701;28;20527;-86
2022/06/01 13:25:22;;;;;;;1.48;1.35;;;19.70;99.90;;;;;;4956848;28;20106;-86
2022/06/01 13:27:51;;;;;;;1.30;1.20;;;;;;;;;;4946692;28;20137;-86
2022/06/01 13:30:20;;;;;;;1.75;1.30;;;19.10;99.90;;;;;;4933036;28;20409;-86
2022/06/01 13:33:25;;;;;;;2.20;1.38;;;19.30;99.90;;;;;;4938358;28;20062;-85
2022/06/01 13:36:02;;;;;;;3.13;1.80;;;19.60;99.90;;;;;;4957278;28;20474;-86
2022/06/01 13:38:39;;;;;;;1.48;1.38;;;18.90;99.90;;;;;;4954178;28;20084;-86
2022/06/01 13:41:19;;;;;;;3.22;1.67;;;18.80;99.90;;;;;;4934580;29;20090;-86
2022/06/01 13:43:47;;;;;;;3.28;1.40;;;18.40;99.90;;;;;;4951773;28;20118;-85
2022/06/01 13:46:26;;;;;;;2.72;1.40;;;18.10;99.90;;;;;;4951403;29;20063;-86
2022/06/01 13:48:55;;;;;;;3.35;1.77;;;17.80;99.90;;;;;;4945931;29;20217;-85
2022/06/01 13:52:11;;;;;;;1.45;1.33;;;17.70;99.90;;;;;;4937384;28;20074;-85
2022/06/01 13:54:38;;;;;;;1.83;1.40;;;18.00;99.90;;;;;;4935664;28;20046;-85
2022/06/01 13:57:19;;;;;;;1.67;1.30;;;18.10;99.90;;;;;;4953845;28;20728;-86
2022/06/01 13:59:56;;;;;;;3.47;1.45;;;18.30;99.90;;;;;;4953853;28;20086;-86
2022/06/01 14:02:54;;;;;;;2.10;1.40;;;18.90;99.90;;;;;;4953373;28;20500;-86
2022/06/01 14:05:25;;;;;;;2.00;1.40;;;18.70;99.90;;;;;;4919086;28;20158;-86
2022/06/01 14:08:23;;;;;;;2.25;1.40;;;18.80;99.90;;;;;;4954091;28;20042;-85
2022/06/01 14:10:51;;;;;;;2.75;1.40;;;18.30;99.90;;;;;;4928029;28;20055;-86
2022/06/01 14:13:19;;;;;;;2.97;1.60;;;18.30;99.90;;;;;;4937947;28;20053;-86
2022/06/01 14:15:46;;;;;;;3.20;1.50;;;18.00;99.90;;;;;;4938468;28;20102;-85
2022/06/01 14:18:21;;;;;;;1.70;1.30;;;17.90;99.90;;;;;;4956112;28;20059;-85
2022/06/01 14:20:50;;;;;;;3.97;1.60;;;17.80;99.90;;;;;;4957434;28;20548;-85
2022/06/01 14:23:16;;;;;;;2.65;1.48;;;;;;;;;;4954027;28;20058;-85
2022/06/01 14:28:47;;;;;;;1.90;1.50;;;17.50;99.90;;;;;;4955266;29;20051;-87
2022/06/01 14:31:42;;;;;;;1.80;1.60;;;17.80;99.90;;;;;;4947991;28;20062;-87